Terminal Aerodrome Forecast
Issued by NWS

Home | Current Version | Previous Version | Text Only | Print | Product List | Glossary On
Versions: 1 2 3 4 5 6 7 8 9 10 11 12 13 14 15 16 17 18 19 20
875
FTUS44 KCRP 262340
TAFALI
TAF
KALI 262340Z 2700/2724 14012G18KT P6SM VCSH SCT050 BKN100
     FM270100 13010G15KT P6SM SCT060 BKN150
     FM270300 11005KT P6SM SCT020 BKN250
      TEMPO 2710/2712 5SM BR BKN015
     FM271400 05007KT P6SM BKN025
     FM271800 09008KT P6SM VCTS SCT040CB=

USA.gov is the U.S. government's official web portal to all federal, state and local government web resources and services.